Time;durP1;ratioP1;P1;durP2;ratioP2;P2;SDS_P1;SDS_P2;PMS_P1;PMS_P2;Temp;Humidity;BMP_temperature;BMP_pressure;BME280_temperature;BME280_humidity;BME280_pressure;Samples;Min_cycle;Max_cycle;Signal;HPM_P1;HPM_P2
2021/08/22 00:01:55;;;;;;;6.13;5.50;;;22.90;99.90;;;;;;5093091;28;20201;-79
2021/08/22 00:04:22;;;;;;;5.80;5.35;;;22.90;99.90;;;;;;5093293;28;20730;-80
2021/08/22 00:06:51;;;;;;;6.53;5.68;;;22.90;99.90;;;;;;5093638;28;20197;-79
2021/08/22 00:09:17;;;;;;;6.25;5.63;;;22.80;99.90;;;;;;5093505;28;20580;-80
2021/08/22 00:11:44;;;;;;;6.50;5.47;;;22.60;99.90;;;;;;5092682;28;20201;-81
2021/08/22 00:14:11;;;;;;;7.25;6.10;;;22.50;99.90;;;;;;5093229;28;20266;-78
2021/08/22 00:16:38;;;;;;;5.53;5.03;;;22.50;99.90;;;;;;5092541;28;20205;-79
2021/08/22 00:19:05;;;;;;;7.45;5.47;;;22.50;99.90;;;;;;5093134;28;20255;-81
2021/08/22 00:21:32;;;;;;;5.65;4.72;;;22.50;99.90;;;;;;5092630;28;20205;-81
2021/08/22 00:24:01;;;;;;;5.57;5.07;;;22.40;99.90;;;;;;5092986;28;20198;-81
2021/08/22 00:26:28;;;;;;;6.68;6.05;;;22.50;99.90;;;;;;5092681;28;20209;-79
2021/08/22 00:28:55;;;;;;;5.85;4.97;;;22.40;99.90;;;;;;5091321;28;20291;-81
2021/08/22 00:31:22;;;;;;;6.55;5.45;;;22.40;99.90;;;;;;5091386;28;20253;-79
2021/08/22 00:33:48;;;;;;;6.32;5.65;;;22.40;99.90;;;;;;5089516;28;20251;-80
2021/08/22 00:36:15;;;;;;;6.53;5.78;;;22.40;99.90;;;;;;5092854;28;20217;-80
2021/08/22 00:38:44;;;;;;;7.43;5.90;;;22.40;99.90;;;;;;5092212;28;20688;-78
2021/08/22 00:41:13;;;;;;;5.68;5.18;;;22.40;99.90;;;;;;5092569;28;20210;-78
2021/08/22 00:43:40;;;;;;;6.03;4.90;;;22.40;99.90;;;;;;5091868;28;20582;-78
2021/08/22 00:46:07;;;;;;;7.97;6.07;;;22.40;99.90;;;;;;5092114;28;20202;-80
2021/08/22 00:48:35;;;;;;;6.28;5.57;;;22.40;99.90;;;;;;5092292;28;20226;-80
2021/08/22 00:51:02;;;;;;;6.60;6.00;;;22.50;99.90;;;;;;5092223;28;20263;-79
2021/08/22 00:53:32;;;;;;;6.22;5.45;;;22.40;99.90;;;;;;5092068;28;20212;-80
2021/08/22 00:56:03;;;;;;;6.38;5.07;;;22.30;99.90;;;;;;5092157;28;20266;-79
2021/08/22 00:58:32;;;;;;;8.10;6.32;;;22.30;99.90;;;;;;5091830;28;20214;-79
2021/08/22 01:00:59;;;;;;;7.40;6.63;;;22.20;99.90;;;;;;5090903;28;20259;-79
2021/08/22 01:03:36;;;;;;;7.78;7.03;;;22.20;99.90;;;;;;5091624;28;20205;-78
2021/08/22 01:06:08;;;;;;;6.88;6.22;;;22.20;99.90;;;;;;5092217;28;20288;-82
2021/08/22 01:08:39;;;;;;;6.57;5.75;;;22.30;99.90;;;;;;5091573;28;20217;-80
2021/08/22 01:11:09;;;;;;;7.25;6.53;;;22.30;99.90;;;;;;5092087;28;20266;-79
2021/08/22 01:13:42;;;;;;;7.05;6.35;;;22.40;99.90;;;;;;5077417;28;20197;-78
2021/08/22 01:16:10;;;;;;;7.22;5.32;;;22.40;99.90;;;;;;5091843;28;20201;-78
2021/08/22 01:18:39;;;;;;;5.78;5.18;;;22.40;99.90;;;;;;5091441;28;20263;-81
2021/08/22 01:21:11;;;;;;;6.95;6.05;;;22.40;99.90;;;;;;5091551;28;20258;-81
2021/08/22 01:23:42;;;;;;;7.68;6.88;;;22.40;99.90;;;;;;5091138;28;20275;-77
2021/08/22 01:26:10;;;;;;;7.20;6.50;;;22.40;99.90;;;;;;5101544;28;20236;-80
2021/08/22 01:28:41;;;;;;;8.60;6.57;;;22.40;99.90;;;;;;5095356;28;20576;-78
2021/08/22 01:31:13;;;;;;;9.07;5.93;;;22.40;99.90;;;;;;5091636;28;20201;-79
2021/08/22 01:33:42;;;;;;;6.45;5.85;;;22.30;99.90;;;;;;5090948;28;20209;-79
2021/08/22 01:36:10;;;;;;;5.85;5.22;;;22.20;99.90;;;;;;5091567;28;20204;-77
2021/08/22 01:38:38;;;;;;;6.35;5.75;;;22.20;99.90;;;;;;5091168;28;20292;-79
2021/08/22 01:41:06;;;;;;;6.63;5.22;;;22.30;99.90;;;;;;5091163;28;20198;-79
2021/08/22 01:43:34;;;;;;;6.60;5.90;;;22.30;99.90;;;;;;5090654;28;20568;-79
2021/08/22 01:46:02;;;;;;;10.20;7.15;;;22.30;99.90;;;;;;5090932;28;20615;-81
2021/08/22 01:48:30;;;;;;;7.00;6.30;;;22.20;99.90;;;;;;5090830;28;20607;-78
2021/08/22 01:51:00;;;;;;;6.53;5.47;;;22.10;99.90;;;;;;5091299;28;20205;-78
2021/08/22 01:53:29;;;;;;;5.65;5.15;;;22.00;99.90;;;;;;5090805;28;20258;-77
2021/08/22 01:55:56;;;;;;;5.05;4.65;;;21.90;99.90;;;;;;5091402;28;20213;-78
2021/08/22 01:58:25;;;;;;;6.00;5.38;;;21.90;99.90;;;;;;5090854;28;20251;-78
2021/08/22 02:00:52;;;;;;;6.03;5.43;;;21.70;99.90;;;;;;5090894;28;20292;-81
2021/08/22 02:03:26;;;;;;;6.60;5.70;;;21.70;99.90;;;;;;5091454;28;20255;-78
2021/08/22 02:05:59;;;;;;;7.25;5.38;;;21.60;99.90;;;;;;5091019;28;20267;-78
2021/08/22 02:08:31;;;;;;;6.05;5.20;;;21.60;99.90;;;;;;5076816;28;20201;-79
2021/08/22 02:11:03;;;;;;;5.63;5.13;;;21.60;99.90;;;;;;5090841;28;20205;-78
2021/08/22 02:13:36;;;;;;;7.68;5.43;;;21.70;99.90;;;;;;5090414;28;20209;-78
2021/08/22 02:16:06;;;;;;;8.27;5.78;;;21.60;99.90;;;;;;5090794;28;20201;-78
2021/08/22 02:18:36;;;;;;;7.32;5.65;;;21.60;99.90;;;;;;5090285;28;20212;-77
2021/08/22 02:21:03;;;;;;;7.43;6.47;;;21.50;99.90;;;;;;5090961;28;20205;-81
2021/08/22 02:23:32;;;;;;;6.43;5.88;;;21.40;99.90;;;;;;5090425;28;20205;-78
2021/08/22 02:26:00;;;;;;;6.20;5.60;;;21.40;99.90;;;;;;5090629;28;20673;-77
2021/08/22 02:28:28;;;;;;;6.25;5.65;;;21.30;99.90;;;;;;5075875;28;20284;-81
2021/08/22 02:30:55;;;;;;;8.25;6.15;;;21.30;99.90;;;;;;5091005;28;20206;-79
2021/08/22 02:33:22;;;;;;;6.50;5.90;;;21.30;99.90;;;;;;5090591;28;20209;-79
2021/08/22 02:35:49;;;;;;;7.03;6.32;;;21.30;99.90;;;;;;5090908;28;20206;-80
2021/08/22 02:38:16;;;;;;;7.40;6.47;;;21.20;99.90;;;;;;5090592;28;20250;-79
2021/08/22 02:40:45;;;;;;;6.18;5.68;;;21.20;99.90;;;;;;5090110;28;20286;-78
2021/08/22 02:43:12;;;;;;;6.97;6.13;;;21.20;99.90;;;;;;5090423;28;21010;-79
2021/08/22 02:45:39;;;;;;;8.05;6.32;;;21.10;99.90;;;;;;5089776;28;20644;-79
2021/08/22 02:48:06;;;;;;;6.78;5.70;;;21.10;99.90;;;;;;5090587;28;20197;-79
2021/08/22 02:50:33;;;;;;;6.95;5.85;;;21.00;99.90;;;;;;5089891;28;20233;-79
2021/08/22 02:53:00;;;;;;;5.13;4.68;;;21.00;99.90;;;;;;5090194;28;20266;-79
2021/08/22 02:55:27;;;;;;;5.22;4.75;;;21.00;99.90;;;;;;5090315;28;20255;-79
2021/08/22 02:57:56;;;;;;;5.30;4.88;;;21.00;99.90;;;;;;5090282;28;20251;-82
2021/08/22 03:00:24;;;;;;;9.60;4.60;;;21.00;99.90;;;;;;5090605;28;20205;-77
2021/08/22 03:02:51;;;;;;;7.68;5.95;;;20.90;99.90;;;;;;5090427;28;20205;-82
2021/08/22 03:05:18;;;;;;;7.43;5.68;;;20.90;99.90;;;;;;5090698;28;20251;-80
2021/08/22 03:07:45;;;;;;;4.85;4.40;;;20.80;99.90;;;;;;5090060;28;20255;-79
2021/08/22 03:10:12;;;;;;;6.05;5.50;;;20.90;99.90;;;;;;5090637;28;20275;-79
2021/08/22 03:12:39;;;;;;;6.05;5.30;;;21.00;99.90;;;;;;5090013;28;20210;-79
2021/08/22 03:15:09;;;;;;;7.45;5.68;;;21.00;99.90;;;;;;5090085;28;20612;-78
2021/08/22 03:17:37;;;;;;;7.32;6.43;;;21.20;99.90;;;;;;5077717;28;20214;-82
2021/08/22 03:20:05;;;;;;;5.75;5.18;;;21.10;99.90;;;;;;5074163;28;20197;-81
2021/08/22 03:22:33;;;;;;;5.75;5.15;;;21.10;99.90;;;;;;5090081;28;20229;-79
2021/08/22 03:25:00;;;;;;;6.28;4.55;;;21.10;99.90;;;;;;5093197;28;20598;-79
2021/08/22 03:27:28;;;;;;;4.63;4.22;;;21.10;99.90;;;;;;5093568;28;20258;-79
2021/08/22 03:29:55;;;;;;;4.05;3.33;;;21.10;99.90;;;;;;5093951;28;20229;-79
2021/08/22 03:32:23;;;;;;;4.53;3.63;;;21.10;99.90;;;;;;5093739;28;20617;-79
2021/08/22 03:34:50;;;;;;;4.50;3.40;;;21.20;99.90;;;;;;5094493;28;20258;-80
2021/08/22 03:37:17;;;;;;;3.80;3.35;;;21.20;99.90;;;;;;5094390;28;20197;-79
2021/08/22 03:39:44;;;;;;;3.78;2.92;;;21.20;99.90;;;;;;5093272;28;20214;-79
2021/08/22 03:42:11;;;;;;;3.88;2.92;;;21.20;99.90;;;;;;5093844;28;20213;-79
2021/08/22 03:44:38;;;;;;;5.45;3.63;;;21.10;99.90;;;;;;5093276;28;20258;-78
2021/08/22 03:47:06;;;;;;;2.90;2.58;;;21.10;99.90;;;;;;5093699;28;20210;-78
2021/08/22 03:49:34;;;;;;;2.97;2.78;;;21.20;99.90;;;;;;5093218;28;20233;-79
2021/08/22 03:52:03;;;;;;;3.08;2.88;;;21.20;99.90;;;;;;5093871;28;20212;-78
2021/08/22 03:54:30;;;;;;;3.40;3.10;;;21.10;99.90;;;;;;5093084;28;20205;-80
2021/08/22 03:56:57;;;;;;;3.45;3.13;;;21.00;99.90;;;;;;5093607;28;20202;-78
2021/08/22 03:59:24;;;;;;;4.68;3.08;;;21.00;99.90;;;;;;5092728;28;20217;-77
2021/08/22 04:01:51;;;;;;;3.00;2.72;;;20.90;99.90;;;;;;5093724;28;20666;-79
2021/08/22 04:04:18;;;;;;;3.83;2.60;;;21.00;99.90;;;;;;5093530;28;20206;-78
2021/08/22 04:06:49;;;;;;;2.88;2.58;;;20.90;99.90;;;;;;5093218;28;20209;-78
2021/08/22 04:09:17;;;;;;;4.32;2.95;;;20.80;99.90;;;;;;5093383;28;20228;-79
2021/08/22 04:11:46;;;;;;;3.17;2.88;;;20.80;99.90;;;;;;5092547;28;20216;-79
2021/08/22 04:14:14;;;;;;;3.72;2.33;;;20.80;99.90;;;;;;5093286;28;20216;-78
2021/08/22 04:16:41;;;;;;;2.90;2.35;;;20.80;99.90;;;;;;5092822;28;20243;-82
2021/08/22 04:19:08;;;;;;;2.78;2.55;;;20.70;99.90;;;;;;5093409;28;20250;-81
2021/08/22 04:21:35;;;;;;;3.35;2.33;;;20.70;99.90;;;;;;5092512;28;20247;-80
2021/08/22 04:24:04;;;;;;;4.60;2.45;;;20.70;99.90;;;;;;5093038;28;20643;-80
2021/08/22 04:26:32;;;;;;;2.47;2.28;;;20.70;99.90;;;;;;5092264;28;20210;-78
2021/08/22 04:28:59;;;;;;;2.60;2.40;;;20.60;99.90;;;;;;5093346;28;20201;-80
2021/08/22 04:31:26;;;;;;;4.63;2.72;;;20.40;99.90;;;;;;5078764;28;20230;-80
2021/08/22 04:33:53;;;;;;;3.72;2.72;;;20.40;99.90;;;;;;5078809;28;20255;-79
2021/08/22 04:36:20;;;;;;;3.17;2.72;;;20.50;99.90;;;;;;5092911;28;20201;-81
2021/08/22 04:38:47;;;;;;;2.90;2.65;;;20.40;99.90;;;;;;5091994;28;20205;-77
2021/08/22 04:41:19;;;;;;;2.72;2.53;;;20.50;99.90;;;;;;5092613;28;20209;-80
2021/08/22 04:43:46;;;;;;;2.97;2.78;;;20.60;99.90;;;;;;5092512;28;20213;-80
2021/08/22 04:46:13;;;;;;;3.22;2.58;;;20.60;99.90;;;;;;5092742;28;20254;-78
2021/08/22 04:48:41;;;;;;;3.25;2.33;;;20.40;99.90;;;;;;5092427;28;20209;-80
2021/08/22 04:51:08;;;;;;;3.30;3.00;;;20.30;99.90;;;;;;5092313;28;20225;-78
2021/08/22 04:53:35;;;;;;;3.85;3.05;;;20.30;99.90;;;;;;5091909;28;20288;-82
2021/08/22 04:56:02;;;;;;;2.90;2.70;;;20.40;99.90;;;;;;5091885;28;20258;-80
2021/08/22 04:58:31;;;;;;;3.03;2.55;;;20.30;99.90;;;;;;5091998;28;20292;-79
2021/08/22 05:00:58;;;;;;;2.65;2.45;;;20.40;99.90;;;;;;5092029;28;20206;-78
2021/08/22 05:03:25;;;;;;;2.70;2.50;;;20.30;99.90;;;;;;5092009;28;20213;-77
2021/08/22 05:05:52;;;;;;;2.97;2.67;;;20.30;99.90;;;;;;5092432;28;20258;-78
2021/08/22 05:08:21;;;;;;;3.47;2.65;;;20.30;99.90;;;;;;5092214;28;20243;-82
2021/08/22 05:10:49;;;;;;;3.97;2.60;;;20.40;99.90;;;;;;5092619;28;20324;-80
2021/08/22 05:13:16;;;;;;;2.50;2.30;;;20.30;99.90;;;;;;5091937;28;20198;-78
2021/08/22 05:15:45;;;;;;;3.00;2.40;;;20.40;99.90;;;;;;5091831;28;20876;-79
2021/08/22 05:18:13;;;;;;;3.92;2.50;;;20.40;99.90;;;;;;5091937;28;20205;-78
2021/08/22 05:20:40;;;;;;;3.42;2.92;;;20.30;99.90;;;;;;5091356;28;20561;-77
2021/08/22 05:23:06;;;;;;;2.80;2.60;;;20.40;99.90;;;;;;5091381;28;20263;-79
2021/08/22 05:25:33;;;;;;;3.35;2.70;;;20.40;99.90;;;;;;5091712;28;20209;-80
2021/08/22 05:28:00;;;;;;;3.10;2.80;;;20.30;99.90;;;;;;5091798;28;20255;-78
2021/08/22 05:30:27;;;;;;;2.75;2.13;;;20.30;99.90;;;;;;5091231;28;20278;-79
2021/08/22 05:32:56;;;;;;;3.28;2.65;;;20.20;99.90;;;;;;5091498;28;20213;-77
2021/08/22 05:35:23;;;;;;;3.83;2.67;;;20.30;99.90;;;;;;5090706;28;20251;-78
2021/08/22 05:37:50;;;;;;;4.30;2.90;;;20.30;99.90;;;;;;5092072;28;20260;-81
2021/08/22 05:40:17;;;;;;;3.55;3.25;;;20.40;99.90;;;;;;5091993;28;20258;-77
2021/08/22 05:42:44;;;;;;;3.42;3.13;;;20.50;99.90;;;;;;5091170;28;20246;-80
2021/08/22 05:45:11;;;;;;;4.50;2.75;;;20.40;99.90;;;;;;5091341;28;20757;-82
2021/08/22 05:47:38;;;;;;;4.03;2.63;;;20.40;99.90;;;;;;5090201;28;20205;-80
2021/08/22 05:50:08;;;;;;;4.03;3.28;;;20.40;99.90;;;;;;5090866;28;20228;-82
2021/08/22 05:52:35;;;;;;;3.47;2.45;;;20.50;99.90;;;;;;5090416;28;20202;-79
2021/08/22 05:55:05;;;;;;;5.35;3.10;;;20.40;99.90;;;;;;5091494;28;20209;-79
2021/08/22 05:57:32;;;;;;;3.35;3.05;;;20.40;99.90;;;;;;5090577;28;20652;-78
2021/08/22 06:00:00;;;;;;;3.50;2.65;;;20.20;99.90;;;;;;5090951;28;20251;-79
2021/08/22 06:02:27;;;;;;;3.33;3.03;;;20.30;99.90;;;;;;5090633;28;20210;-80
2021/08/22 06:04:54;;;;;;;3.75;3.10;;;20.40;99.90;;;;;;5095085;28;20209;-80
2021/08/22 06:07:23;;;;;;;4.43;2.90;;;20.20;99.90;;;;;;5099339;28;20245;-80
2021/08/22 06:09:51;;;;;;;3.08;2.72;;;20.10;99.90;;;;;;5098673;28;20202;-79
2021/08/22 06:12:20;;;;;;;4.22;2.65;;;20.40;99.90;;;;;;5099927;28;20205;-80
2021/08/22 06:14:47;;;;;;;2.60;2.40;;;20.40;99.90;;;;;;5100490;28;20204;-81
2021/08/22 06:17:14;;;;;;;3.22;2.92;;;20.40;99.90;;;;;;5100114;28;20201;-80
2021/08/22 06:19:41;;;;;;;4.57;4.18;;;20.30;99.90;;;;;;5102726;28;20626;-80
2021/08/22 06:22:08;;;;;;;5.40;3.10;;;20.30;99.90;;;;;;5099986;28;20202;-79
2021/08/22 06:24:36;;;;;;;4.65;3.10;;;20.30;99.90;;;;;;5104741;28;20261;-79
2021/08/22 06:27:04;;;;;;;3.42;3.05;;;20.20;99.90;;;;;;5100550;28;20266;-77
2021/08/22 06:29:31;;;;;;;3.05;2.75;;;20.30;99.90;;;;;;5106057;28;20196;-77
2021/08/22 06:31:58;;;;;;;4.13;2.92;;;20.30;99.90;;;;;;5102165;28;20233;-78
2021/08/22 06:34:25;;;;;;;3.50;2.88;;;20.30;99.90;;;;;;5090249;28;20209;-77
2021/08/22 06:36:52;;;;;;;3.28;2.97;;;20.30;99.90;;;;;;5090609;28;20254;-78
2021/08/22 06:39:19;;;;;;;5.35;3.00;;;20.40;99.90;;;;;;5090599;28;20202;-77
2021/08/22 06:41:47;;;;;;;4.57;3.13;;;20.50;99.90;;;;;;5090271;28;20217;-78
2021/08/22 06:44:15;;;;;;;3.20;2.90;;;20.50;99.90;;;;;;5075469;28;20213;-78
2021/08/22 06:46:42;;;;;;;3.25;2.97;;;20.50;99.90;;;;;;5082796;28;20216;-78
2021/08/22 06:49:09;;;;;;;3.40;3.10;;;20.50;99.90;;;;;;5090817;28;20568;-78
2021/08/22 06:51:37;;;;;;;3.80;2.83;;;20.50;99.90;;;;;;5091004;28;20232;-77
2021/08/22 06:54:03;;;;;;;4.70;3.25;;;20.60;99.90;;;;;;5093191;28;20213;-77
2021/08/22 06:56:31;;;;;;;3.85;3.08;;;20.60;99.90;;;;;;5091723;28;20229;-76
2021/08/22 06:58:59;;;;;;;4.57;4.25;;;20.60;99.90;;;;;;5096915;28;20205;-76
2021/08/22 07:01:26;;;;;;;4.75;3.00;;;20.50;99.90;;;;;;5098190;28;20617;-76
2021/08/22 07:03:53;;;;;;;4.07;3.72;;;20.50;99.90;;;;;;5097285;28;20251;-76
2021/08/22 07:06:20;;;;;;;3.55;3.22;;;20.80;99.90;;;;;;5101890;28;20260;-76
2021/08/22 07:08:47;;;;;;;3.05;2.75;;;20.80;99.90;;;;;;5098693;28;20201;-75
2021/08/22 07:11:15;;;;;;;3.15;2.95;;;20.80;99.90;;;;;;5103231;28;20662;-75
2021/08/22 07:13:42;;;;;;;3.35;3.05;;;20.90;99.90;;;;;;5099304;28;20292;-76
2021/08/22 07:16:10;;;;;;;2.75;2.53;;;20.90;99.90;;;;;;5099682;28;20201;-78
2021/08/22 07:18:37;;;;;;;3.47;2.88;;;20.90;99.90;;;;;;5099469;28;20201;-75
2021/08/22 07:21:04;;;;;;;3.00;2.70;;;20.80;99.90;;;;;;5105029;28;20205;-76
2021/08/22 07:23:32;;;;;;;4.43;3.17;;;21.00;99.90;;;;;;5101580;28;20682;-76
2021/08/22 07:25:58;;;;;;;2.75;2.42;;;21.10;99.90;;;;;;5105331;28;20245;-76
2021/08/22 07:28:26;;;;;;;3.47;3.08;;;21.20;99.90;;;;;;5104124;28;20209;-78
2021/08/22 07:30:53;;;;;;;3.75;2.97;;;21.20;99.90;;;;;;5105473;28;20297;-76
2021/08/22 07:33:21;;;;;;;4.03;2.97;;;21.10;99.90;;;;;;5107187;27;20201;-76
2021/08/22 07:35:48;;;;;;;3.35;3.05;;;21.10;99.90;;;;;;5106282;28;20679;-76
2021/08/22 07:38:15;;;;;;;5.15;3.53;;;21.10;99.90;;;;;;5099837;28;20637;-76
2021/08/22 07:40:42;;;;;;;4.03;2.60;;;21.10;99.90;;;;;;5093920;28;20601;-76
2021/08/22 07:43:09;;;;;;;3.55;2.97;;;21.10;99.90;;;;;;5094884;28;20263;-76
2021/08/22 07:45:36;;;;;;;5.35;2.70;;;21.20;99.90;;;;;;5096499;28;20205;-76
2021/08/22 07:48:03;;;;;;;3.63;2.85;;;21.40;99.90;;;;;;5095678;28;20198;-77
2021/08/22 07:50:31;;;;;;;2.95;2.67;;;21.50;99.90;;;;;;5097427;28;20225;-77
2021/08/22 07:52:58;;;;;;;4.50;3.17;;;21.60;99.90;;;;;;5097594;28;20202;-76
2021/08/22 07:55:25;;;;;;;3.67;3.25;;;21.70;99.90;;;;;;5097776;28;20313;-76
2021/08/22 07:57:52;;;;;;;3.05;2.35;;;21.90;99.90;;;;;;5099859;28;20210;-76
2021/08/22 08:00:20;;;;;;;3.15;2.63;;;21.90;99.90;;;;;;5098211;28;20205;-76
2021/08/22 08:02:47;;;;;;;3.08;2.63;;;21.90;99.90;;;;;;5101917;28;20230;-77
2021/08/22 08:05:14;;;;;;;2.97;2.78;;;21.90;99.90;;;;;;5098211;28;20201;-76
2021/08/22 08:07:43;;;;;;;4.30;2.45;;;21.80;99.90;;;;;;5104382;28;20209;-78
2021/08/22 08:10:11;;;;;;;3.33;2.40;;;21.90;99.90;;;;;;5099189;28;20202;-77
2021/08/22 08:12:38;;;;;;;2.67;2.13;;;22.10;99.90;;;;;;5105385;28;20205;-77
2021/08/22 08:15:06;;;;;;;2.80;2.60;;;22.40;99.90;;;;;;5100499;28;20681;-77
2021/08/22 08:17:33;;;;;;;3.75;2.30;;;22.70;99.90;;;;;;5105233;28;20262;-76
2021/08/22 08:20:00;;;;;;;2.60;2.33;;;22.90;99.90;;;;;;5103253;28;20197;-77
2021/08/22 08:22:27;;;;;;;2.92;2.17;;;22.80;99.90;;;;;;5105656;28;20209;-76
2021/08/22 08:24:56;;;;;;;2.80;2.60;;;22.70;99.90;;;;;;5106107;27;20205;-76
2021/08/22 08:27:23;;;;;;;2.45;2.25;;;22.70;99.90;;;;;;5106361;28;20688;-77
2021/08/22 08:29:51;;;;;;;2.30;2.10;;;22.80;99.90;;;;;;5108522;28;20236;-76
2021/08/22 08:32:18;;;;;;;2.95;2.35;;;22.90;99.90;;;;;;5107300;28;20228;-76
2021/08/22 08:34:45;;;;;;;2.47;2.08;;;22.80;99.90;;;;;;5109413;28;20208;-76
2021/08/22 08:37:13;;;;;;;2.63;2.08;;;23.00;99.90;;;;;;5106208;28;20283;-77
2021/08/22 08:39:40;;;;;;;4.80;2.47;;;23.00;99.90;;;;;;5092138;28;20259;-81
2021/08/22 08:42:23;;;;;;;2.50;2.30;;;23.00;99.90;;;;;;5093836;28;20247;-80
2021/08/22 08:44:52;;;;;;;5.35;2.08;;;23.10;99.90;;;;;;5082827;28;20255;-77
2021/08/22 08:47:19;;;;;;;1.90;1.70;;;23.30;99.90;;;;;;5096316;28;20205;-77
2021/08/22 08:49:56;;;;;;;2.63;1.80;;;23.50;99.90;;;;;;5094861;28;20287;-77
2021/08/22 08:52:27;;;;;;;4.25;2.58;;;23.50;99.90;;;;;;5097841;28;20270;-77
2021/08/22 08:54:55;;;;;;;2.55;2.33;;;23.40;99.90;;;;;;5095706;28;20273;-77
2021/08/22 08:57:23;;;;;;;2.60;2.10;;;23.50;99.90;;;;;;5098986;28;20284;-78
2021/08/22 08:59:50;;;;;;;2.60;2.03;;;23.60;99.90;;;;;;5097091;28;20642;-77
2021/08/22 09:02:17;;;;;;;3.05;2.50;;;23.60;99.90;;;;;;5099913;28;20637;-78
2021/08/22 09:04:48;;;;;;;3.97;2.25;;;23.60;99.90;;;;;;5098726;28;20201;-80
2021/08/22 09:07:46;;;;;;;2.72;2.50;;;23.70;99.90;;;;;;5100164;28;20262;-79
2021/08/22 09:10:45;;;;;;;4.97;2.45;;;23.80;99.90;;;;;;5092336;28;20205;-79
2021/08/22 09:13:49;;;;;;;2.55;2.35;;;24.00;99.90;;;;;;5096304;28;20673;-79
2021/08/22 09:16:59;;;;;;;3.60;2.55;;;23.80;99.90;;;;;;5095117;28;20620;-78
2021/08/22 09:20:08;;;;;;;3.42;2.33;;;23.70;99.90;;;;;;5052519;28;20223;-79
2021/08/22 09:23:17;;;;;;;4.80;3.05;;;23.80;99.90;;;;;;5087771;28;20664;-77
2021/08/22 09:26:33;;;;;;;2.13;2.00;;;24.00;99.90;;;;;;5105326;28;20565;-78
2021/08/22 09:29:37;;;;;;;3.67;2.10;;;24.10;99.90;;;;;;5105032;28;20262;-79
2021/08/22 09:32:44;;;;;;;3.30;2.20;;;24.20;99.90;;;;;;5094860;28;20286;-78
2021/08/22 09:35:48;;;;;;;3.25;1.95;;;24.40;99.90;;;;;;5068550;28;20202;-79
2021/08/22 09:39:00;;;;;;;3.35;1.90;;;24.30;99.90;;;;;;5099688;28;20201;-80
2021/08/22 09:42:13;;;;;;;2.17;1.98;;;24.70;99.90;;;;;;5080383;28;20596;-81
2021/08/22 09:45:22;;;;;;;3.65;1.85;;;25.00;99.90;;;;;;5090617;28;20213;-80
2021/08/22 09:48:23;;;;;;;1.67;1.58;;;24.90;99.90;;;;;;5094215;28;20278;-80
2021/08/22 09:51:27;;;;;;;2.40;2.10;;;25.10;99.90;;;;;;5094821;28;20250;-79
2021/08/22 09:54:39;;;;;;;1.73;1.63;;;25.30;99.90;;;;;;5094555;28;20661;-80
2021/08/22 09:57:44;;;;;;;1.42;1.20;;;25.50;99.90;;;;;;5088282;28;20201;-80
2021/08/22 10:00:31;;;;;;;3.25;1.75;;;25.50;99.90;;;;;;5086572;28;20270;-80
2021/08/22 10:03:35;;;;;;;1.63;1.52;;;25.60;99.90;;;;;;5092589;28;20206;-81
2021/08/22 10:06:17;;;;;;;1.80;1.42;;;25.30;99.90;;;;;;5100247;28;20201;-79
2021/08/22 10:08:51;;;;;;;2.47;1.45;;;25.40;99.90;;;;;;5095864;28;20739;-81
2021/08/22 10:11:24;;;;;;;1.88;1.42;;;25.90;99.90;;;;;;5100123;28;20245;-80
2021/08/22 10:13:51;;;;;;;2.17;1.13;;;25.90;99.90;;;;;;5097999;28;20206;-79
2021/08/22 10:16:20;;;;;;;1.60;1.50;;;25.90;99.90;;;;;;5102183;28;20644;-80
2021/08/22 10:18:47;;;;;;;1.63;1.50;;;25.90;99.90;;;;;;5097591;28;20689;-81
2021/08/22 10:21:25;;;;;;;1.75;1.65;;;26.00;99.90;;;;;;5104103;28;20205;-80
2021/08/22 10:23:55;;;;;;;2.47;2.28;;;25.50;99.90;;;;;;5099447;28;20259;-79
2021/08/22 10:26:49;;;;;;;2.05;1.90;;;25.70;99.90;;;;;;5104748;28;20209;-81
2021/08/22 10:29:27;;;;;;;2.58;2.10;;;26.10;99.90;;;;;;5098410;28;20208;-80
2021/08/22 10:32:19;;;;;;;1.77;1.67;;;25.80;99.90;;;;;;5101853;28;20236;-80
2021/08/22 10:34:48;;;;;;;2.03;1.77;;;25.60;99.90;;;;;;5082049;28;20601;-80
2021/08/22 10:37:29;;;;;;;1.63;1.50;;;25.50;99.90;;;;;;5100281;28;20822;-79
2021/08/22 10:39:58;;;;;;;3.05;2.40;;;25.60;99.90;;;;;;5090389;28;20262;-79
2021/08/22 10:42:27;;;;;;;1.98;1.60;;;25.10;99.90;;;;;;5091815;28;20213;-78
2021/08/22 10:44:54;;;;;;;1.75;1.60;;;24.90;99.90;;;;;;5091950;28;20642;-80
2021/08/22 10:47:44;;;;;;;2.83;2.03;;;24.80;99.90;;;;;;5094664;28;20284;-79
2021/08/22 10:50:13;;;;;;;1.75;1.45;;;24.80;99.90;;;;;;5092852;28;20201;-80
2021/08/22 10:52:41;;;;;;;1.98;1.67;;;25.00;99.90;;;;;;5092790;28;20233;-80
2021/08/22 10:55:30;;;;;;;1.80;1.58;;;25.00;99.90;;;;;;5092389;28;20209;-80
2021/08/22 10:57:57;;;;;;;1.95;1.77;;;25.30;99.90;;;;;;5084765;28;20212;-79
2021/08/22 11:00:26;;;;;;;2.03;1.83;;;25.60;99.90;;;;;;5092143;28;20206;-81
2021/08/22 11:02:55;;;;;;;2.20;1.88;;;25.50;99.90;;;;;;5097239;28;20232;-80
2021/08/22 11:05:23;;;;;;;2.58;1.50;;;25.60;99.90;;;;;;5095909;28;20210;-79
2021/08/22 11:07:52;;;;;;;1.85;1.75;;;25.40;99.90;;;;;;5099777;28;20261;-80
2021/08/22 11:10:21;;;;;;;2.58;2.38;;;25.40;99.90;;;;;;5096189;28;20241;-80
2021/08/22 11:12:51;;;;;;;2.60;1.77;;;25.40;99.90;;;;;;5099428;28;20250;-81
2021/08/22 11:15:24;;;;;;;2.45;2.20;;;25.30;99.90;;;;;;5096692;28;20198;-81
2021/08/22 11:17:51;;;;;;;4.63;1.90;;;25.00;99.90;;;;;;5084929;28;20198;-79
2021/08/22 11:20:21;;;;;;;2.33;2.03;;;24.80;99.90;;;;;;5092046;28;20255;-79
2021/08/22 11:22:50;;;;;;;4.95;3.75;;;24.60;99.90;;;;;;5090324;28;20277;-79
2021/08/22 11:25:18;;;;;;;2.72;1.98;;;24.60;99.90;;;;;;5090664;28;20647;-78
2021/08/22 11:27:47;;;;;;;2.58;2.15;;;24.60;99.90;;;;;;5085222;28;20209;-78
2021/08/22 11:30:15;;;;;;;2.22;2.03;;;24.70;99.90;;;;;;5099143;28;20202;-80
2021/08/22 11:32:51;;;;;;;7.45;5.90;;;24.80;99.90;;;;;;5105028;28;20644;-78
2021/08/22 11:35:23;;;;;;;3.42;2.35;;;24.90;99.90;;;;;;5092486;28;20224;-79
2021/08/22 11:37:50;;;;;;;3.25;2.95;;;25.20;99.90;;;;;;5087553;28;20683;-79
2021/08/22 11:40:19;;;;;;;10.85;9.15;;;25.40;99.90;;;;;;5090629;28;20205;-78
2021/08/22 11:42:47;;;;;;;2.50;2.30;;;25.60;99.90;;;;;;5091359;28;20631;-78
2021/08/22 11:45:16;;;;;;;3.33;3.03;;;25.50;99.90;;;;;;5094594;28;20198;-77
2021/08/22 11:47:44;;;;;;;3.25;3.00;;;25.10;99.90;;;;;;5092987;28;20714;-79
2021/08/22 11:50:12;;;;;;;4.90;4.47;;;25.40;99.90;;;;;;5093061;28;20201;-77
2021/08/22 11:52:46;;;;;;;2.60;2.40;;;25.90;99.90;;;;;;5092441;28;20701;-80
2021/08/22 11:55:15;;;;;;;2.85;2.03;;;26.10;99.90;;;;;;5083321;28;20202;-82
2021/08/22 11:57:42;;;;;;;2.47;2.28;;;26.30;99.90;;;;;;5093131;28;20262;-78
2021/08/22 12:00:11;;;;;;;2.63;2.22;;;26.20;99.90;;;;;;5093115;28;20201;-79
2021/08/22 12:02:39;;;;;;;3.78;2.80;;;26.60;99.90;;;;;;5092043;28;20685;-78
2021/08/22 12:05:17;;;;;;;2.53;2.33;;;26.60;99.90;;;;;;5092039;28;20205;-79
2021/08/22 12:07:46;;;;;;;4.60;2.63;;;26.40;99.90;;;;;;5092581;28;20205;-78
2021/08/22 12:10:25;;;;;;;4.13;3.65;;;25.90;99.90;;;;;;5093147;28;20201;-79
2021/08/22 12:12:53;;;;;;;3.42;2.28;;;25.70;99.90;;;;;;5103378;28;20297;-79
2021/08/22 12:15:28;;;;;;;2.33;2.13;;;25.60;99.90;;;;;;5105621;28;20205;-78
2021/08/22 12:18:13;;;;;;;2.03;1.90;;;25.40;99.90;;;;;;5107029;28;20265;-77
2021/08/22 12:20:40;;;;;;;4.65;4.25;;;25.30;99.90;;;;;;5099781;28;20247;-77
2021/08/22 12:23:10;;;;;;;2.83;2.15;;;25.30;99.90;;;;;;5101418;28;20250;-80
2021/08/22 12:25:40;;;;;;;2.45;2.25;;;25.40;99.90;;;;;;5097553;28;20258;-79
2021/08/22 12:28:21;;;;;;;2.38;2.17;;;25.10;99.90;;;;;;5095462;27;20216;-81
2021/08/22 12:30:50;;;;;;;5.00;2.33;;;25.20;99.90;;;;;;5105316;28;20567;-78
2021/08/22 12:33:38;;;;;;;3.92;3.63;;;25.20;99.90;;;;;;5109461;28;20232;-78
2021/08/22 12:36:12;;;;;;;4.20;3.90;;;25.20;99.90;;;;;;5102289;28;20205;-77
2021/08/22 12:38:43;;;;;;;3.75;2.35;;;25.20;99.90;;;;;;5101556;28;20196;-78
2021/08/22 12:41:33;;;;;;;2.65;2.45;;;25.50;99.90;;;;;;5107065;28;20726;-79
2021/08/22 12:44:02;;;;;;;3.60;2.42;;;25.50;99.90;;;;;;5102308;28;20227;-77
2021/08/22 12:46:30;;;;;;;2.50;2.22;;;25.50;99.90;;;;;;5103573;28;20209;-78
2021/08/22 12:48:58;;;;;;;2.63;2.42;;;25.40;99.90;;;;;;5097472;28;20209;-78
2021/08/22 12:51:26;;;;;;;2.45;2.25;;;25.50;99.90;;;;;;5089907;28;20259;-79
2021/08/22 12:53:55;;;;;;;4.90;2.90;;;25.60;99.90;;;;;;5091407;28;20225;-79
2021/08/22 12:56:23;;;;;;;3.28;2.92;;;25.80;99.90;;;;;;5099257;28;20198;-78
2021/08/22 12:58:52;;;;;;;2.78;2.47;;;25.90;99.90;;;;;;5098050;28;20250;-77
2021/08/22 13:01:20;;;;;;;3.33;2.60;;;25.80;99.90;;;;;;5105550;28;20687;-79
2021/08/22 13:03:47;;;;;;;3.58;3.28;;;26.00;99.90;;;;;;5110291;28;20288;-79
2021/08/22 13:06:14;;;;;;;4.35;2.80;;;26.10;99.90;;;;;;5094652;28;20683;-78
2021/08/22 13:08:41;;;;;;;3.42;2.60;;;26.30;99.90;;;;;;5092509;28;20804;-78